Time;durP1;ratioP1;P1;durP2;ratioP2;P2;SDS_P1;SDS_P2;PMS_P1;PMS_P2;Temp;Humidity;BMP_temperature;BMP_pressure;BME280_temperature;BME280_humidity;BME280_pressure;Samples;Min_cycle;Max_cycle;Signal;HPM_P1;HPM_P2
2024/02/11 00:02:16;;;;;;;25.97;23.57;;;7.70;99.90;;;;;;4733318;30;20458;-40
2024/02/11 00:04:43;;;;;;;24.73;22.27;;;7.70;99.90;;;;;;4740077;30;20449;-43
2024/02/11 00:07:08;;;;;;;25.17;22.97;;;7.70;99.90;;;;;;4731782;30;20435;-43
2024/02/11 00:09:34;;;;;;;24.67;22.40;;;7.60;99.90;;;;;;4735230;30;20474;-41
2024/02/11 00:11:59;;;;;;;25.37;22.97;;;7.60;99.90;;;;;;4728489;30;20256;-41
2024/02/11 00:14:28;;;;;;;25.80;23.40;;;7.60;99.90;;;;;;4735960;30;20513;-46
2024/02/11 00:16:59;;;;;;;27.33;24.00;;;7.50;99.90;;;;;;4724756;30;20205;-41
2024/02/11 00:19:26;;;;;;;23.90;21.80;;;7.50;99.90;;;;;;4729028;30;20466;-41
2024/02/11 00:21:51;;;;;;;23.00;20.97;;;7.50;99.90;;;;;;4729137;30;20475;-41
2024/02/11 00:24:19;;;;;;;20.67;18.97;;;7.40;99.90;;;;;;4736579;30;20580;-41
2024/02/11 00:26:45;;;;;;;19.97;18.37;;;7.40;99.90;;;;;;4734569;30;20552;-44
2024/02/11 00:29:11;;;;;;;19.70;17.90;;;7.40;99.90;;;;;;4740076;30;20434;-43
2024/02/11 00:31:38;;;;;;;19.10;17.27;;;7.40;99.90;;;;;;4732852;30;21005;-41
2024/02/11 00:34:04;;;;;;;19.57;17.83;;;7.40;99.90;;;;;;4739616;30;20280;-40
2024/02/11 00:36:30;;;;;;;19.27;17.63;;;7.40;99.90;;;;;;4736326;30;20912;-60
2024/02/11 00:38:56;;;;;;;18.77;17.30;;;7.40;99.90;;;;;;4728567;30;20430;-61
2024/02/11 00:41:21;;;;;;;18.67;17.27;;;7.50;99.90;;;;;;4733997;30;20450;-59
2024/02/11 00:43:50;;;;;;;18.00;16.40;;;7.40;99.90;;;;;;4730215;30;20592;-60
2024/02/11 00:46:16;;;;;;;17.03;15.63;;;7.40;99.90;;;;;;4738219;30;20661;-57
2024/02/11 00:48:42;;;;;;;18.50;17.10;;;7.50;99.90;;;;;;4731556;30;20562;-51
2024/02/11 00:51:10;;;;;;;18.53;17.00;;;7.50;99.90;;;;;;4738476;30;20677;-50
2024/02/11 00:53:36;;;;;;;18.50;16.90;;;7.50;99.90;;;;;;4732111;30;20509;-46
2024/02/11 00:56:02;;;;;;;22.63;20.23;;;7.60;99.90;;;;;;4727565;30;20495;-42
2024/02/11 00:58:28;;;;;;;23.93;21.73;;;7.50;99.90;;;;;;4730504;30;20605;-41
2024/02/11 01:00:53;;;;;;;25.60;23.17;;;7.60;99.90;;;;;;4728562;30;20463;-42
2024/02/11 01:03:20;;;;;;;25.43;23.10;;;7.50;99.90;;;;;;4729926;30;20454;-42
2024/02/11 01:05:46;;;;;;;29.60;26.60;;;7.40;99.90;;;;;;4729703;30;20197;-41
2024/02/11 01:08:11;;;;;;;28.47;25.37;;;7.30;99.90;;;;;;4724292;30;20454;-42
2024/02/11 01:10:38;;;;;;;28.30;25.40;;;7.30;99.90;;;;;;4732979;30;20220;-43
2024/02/11 01:13:04;;;;;;;28.53;25.43;;;7.20;99.90;;;;;;4736809;30;20315;-41
2024/02/11 01:15:30;;;;;;;27.73;25.03;;;7.20;99.90;;;;;;4738581;30;20438;-41
2024/02/11 01:17:56;;;;;;;27.87;24.80;;;7.10;99.90;;;;;;4722131;30;20459;-41
2024/02/11 01:20:21;;;;;;;25.90;23.30;;;7.10;99.90;;;;;;4735423;30;20196;-40
2024/02/11 01:22:47;;;;;;;26.60;23.00;;;7.10;99.90;;;;;;4738088;30;20197;-43
2024/02/11 01:25:20;;;;;;;27.07;24.27;;;7.10;99.90;;;;;;4725899;30;20270;-40
2024/02/11 01:27:49;;;;;;;26.23;23.60;;;7.10;99.90;;;;;;4729334;30;20950;-47
2024/02/11 01:30:17;;;;;;;27.60;24.77;;;7.10;99.90;;;;;;4735139;30;20568;-42
2024/02/11 01:32:43;;;;;;;25.33;22.67;;;7.10;99.90;;;;;;4725897;30;20506;-41
2024/02/11 01:35:09;;;;;;;26.30;23.43;;;7.10;99.90;;;;;;4736521;30;20426;-59
2024/02/11 01:37:40;;;;;;;24.23;21.83;;;7.10;99.90;;;;;;4738083;30;20431;-60
2024/02/11 01:40:08;;;;;;;25.30;22.70;;;7.00;99.90;;;;;;4737631;30;20185;-60
2024/02/11 01:42:35;;;;;;;25.67;23.27;;;7.00;99.90;;;;;;4734604;30;20443;-60
2024/02/11 01:45:01;;;;;;;25.60;23.10;;;7.00;99.90;;;;;;4738067;30;20579;-60
2024/02/11 01:47:29;;;;;;;27.97;24.27;;;7.00;99.90;;;;;;4729579;30;20455;-60
2024/02/11 01:49:55;;;;;;;26.07;23.47;;;7.10;99.90;;;;;;4726702;30;20196;-60
2024/02/11 01:52:21;;;;;;;27.23;24.47;;;7.00;99.90;;;;;;4723649;30;20459;-41
2024/02/11 01:54:47;;;;;;;26.23;23.43;;;7.00;99.90;;;;;;4731771;30;20937;-42
2024/02/11 01:57:12;;;;;;;24.90;22.60;;;7.00;99.90;;;;;;4733356;30;20540;-41
2024/02/11 01:59:39;;;;;;;25.83;23.20;;;6.90;99.90;;;;;;4724338;30;20573;-41
2024/02/11 02:02:09;;;;;;;24.20;21.90;;;6.90;99.90;;;;;;4727356;30;20954;-44
2024/02/11 02:04:37;;;;;;;25.80;23.20;;;6.90;99.90;;;;;;4731496;30;20430;-41
2024/02/11 02:07:03;;;;;;;24.13;21.53;;;6.90;99.90;;;;;;4733238;30;20515;-41
2024/02/11 02:09:31;;;;;;;25.87;23.17;;;6.90;99.90;;;;;;4733125;30;20465;-42
2024/02/11 02:11:58;;;;;;;25.20;22.67;;;6.90;99.90;;;;;;4738577;30;20521;-43
2024/02/11 02:14:23;;;;;;;24.37;22.00;;;6.90;99.90;;;;;;4735138;30;20542;-41
2024/02/11 02:16:49;;;;;;;23.87;21.57;;;6.90;99.90;;;;;;4738834;30;20904;-42
2024/02/11 02:19:15;;;;;;;22.90;20.80;;;6.90;99.90;;;;;;4736098;30;20451;-40
2024/02/11 02:21:51;;;;;;;24.40;22.10;;;6.90;99.90;;;;;;4737154;30;20443;-41
2024/02/11 02:24:17;;;;;;;25.90;23.33;;;6.80;99.90;;;;;;4732566;30;20253;-40
2024/02/11 02:26:43;;;;;;;23.47;21.20;;;6.80;99.90;;;;;;4741884;30;20803;-41
2024/02/11 02:29:09;;;;;;;24.77;22.27;;;6.90;99.90;;;;;;4735514;30;20201;-52
2024/02/11 02:31:34;;;;;;;26.23;23.60;;;6.90;99.90;;;;;;4734515;30;20737;-61
2024/02/11 02:34:01;;;;;;;25.10;22.50;;;6.80;99.90;;;;;;4727067;30;20564;-57
2024/02/11 02:36:27;;;;;;;27.20;22.40;;;6.80;99.90;;;;;;4733330;30;20189;-60
2024/02/11 02:38:53;;;;;;;25.53;22.90;;;6.80;99.90;;;;;;4739107;30;20447;-59
2024/02/11 02:41:18;;;;;;;24.67;22.40;;;6.80;99.90;;;;;;4734357;30;20452;-59
2024/02/11 02:43:46;;;;;;;25.77;22.40;;;6.80;99.90;;;;;;4740096;30;20228;-55
2024/02/11 02:46:12;;;;;;;25.17;22.77;;;6.80;99.90;;;;;;4734650;30;20196;-52
2024/02/11 02:48:38;;;;;;;21.97;19.93;;;6.80;99.90;;;;;;4741644;30;20785;-59
2024/02/11 02:51:04;;;;;;;24.07;21.70;;;6.90;99.90;;;;;;4726597;30;20514;-59
2024/02/11 02:53:29;;;;;;;23.60;21.33;;;6.90;99.90;;;;;;4724709;30;20197;-59
2024/02/11 02:55:58;;;;;;;22.77;20.67;;;6.90;99.90;;;;;;4727469;30;20240;-60
2024/02/11 02:58:23;;;;;;;20.43;18.30;;;6.90;99.90;;;;;;4741461;30;20197;-45
2024/02/11 03:00:49;;;;;;;21.50;19.60;;;6.90;99.90;;;;;;4751830;30;20520;-60
2024/02/11 03:03:17;;;;;;;21.53;19.43;;;7.00;99.90;;;;;;4731220;30;20645;-59
2024/02/11 03:05:45;;;;;;;23.13;20.13;;;7.00;99.90;;;;;;4739034;30;20938;-42
2024/02/11 03:08:12;;;;;;;22.40;20.30;;;7.00;99.90;;;;;;4737276;30;20584;-42
2024/02/11 03:10:38;;;;;;;22.87;20.60;;;6.90;99.90;;;;;;4734281;30;20489;-42
2024/02/11 03:13:04;;;;;;;21.93;20.03;;;6.90;99.90;;;;;;4732114;30;20938;-43
2024/02/11 03:15:51;;;;;;;21.10;19.20;;;6.90;99.90;;;;;;4727967;30;20197;-41
2024/02/11 03:18:17;;;;;;;22.30;20.10;;;6.80;99.90;;;;;;4741422;30;20193;-40
2024/02/11 03:20:43;;;;;;;21.40;19.53;;;6.80;99.90;;;;;;4733370;30;20431;-42
2024/02/11 03:23:08;;;;;;;22.10;20.00;;;6.80;99.90;;;;;;4735575;30;20970;-60
2024/02/11 03:25:34;;;;;;;23.20;21.10;;;6.70;99.90;;;;;;4730621;30;20583;-58
2024/02/11 03:27:59;;;;;;;22.20;20.00;;;6.80;99.90;;;;;;4740606;30;20224;-56
2024/02/11 03:30:25;;;;;;;24.40;21.90;;;6.70;99.90;;;;;;4736381;30;20668;-60
2024/02/11 03:32:51;;;;;;;22.10;20.10;;;6.70;99.90;;;;;;4731853;30;20569;-60
2024/02/11 03:35:16;;;;;;;23.23;21.23;;;6.70;99.90;;;;;;4736421;30;20192;-58
2024/02/11 03:37:42;;;;;;;22.60;20.47;;;6.70;99.90;;;;;;4739507;30;20514;-60
2024/02/11 03:40:09;;;;;;;24.13;21.67;;;6.70;99.90;;;;;;4738872;30;20211;-56
2024/02/11 03:42:35;;;;;;;22.97;21.00;;;6.70;99.90;;;;;;4724938;30;20193;-41
2024/02/11 03:45:11;;;;;;;21.73;19.70;;;6.70;99.90;;;;;;4737892;30;20461;-49
2024/02/11 03:47:39;;;;;;;22.77;20.60;;;6.70;99.90;;;;;;4740453;30;20488;-45
2024/02/11 03:50:05;;;;;;;21.90;19.77;;;6.60;99.90;;;;;;4750835;30;20447;-43
2024/02/11 03:52:34;;;;;;;22.17;20.23;;;6.70;99.90;;;;;;4722933;30;20451;-60
2024/02/11 03:55:07;;;;;;;22.00;20.00;;;6.70;99.90;;;;;;4733132;30;21000;-61
2024/02/11 03:57:37;;;;;;;20.90;18.90;;;6.70;99.90;;;;;;4735204;30;21033;-59
2024/02/11 04:00:38;;;;;;;21.23;18.97;;;6.70;99.90;;;;;;4738711;30;20434;-60
2024/02/11 04:02:58;;;;;;;20.70;18.70;;;6.70;99.90;;;;;;4728976;30;20439;-60
2024/02/11 04:05:32;;;;;;;21.40;19.27;;;6.80;99.90;;;;;;4736763;30;20785;-59
2024/02/11 04:07:58;;;;;;;21.07;19.20;;;6.70;99.90;;;;;;4729579;30;20828;-60
2024/02/11 04:10:28;;;;;;;20.90;19.00;;;6.70;99.90;;;;;;4737390;30;20471;-59
2024/02/11 04:12:54;;;;;;;21.83;19.73;;;6.70;99.90;;;;;;4731240;30;20304;-59
2024/02/11 04:15:22;;;;;;;22.03;20.03;;;6.60;99.90;;;;;;4731375;30;20542;-41
2024/02/11 04:17:48;;;;;;;20.97;19.00;;;6.70;99.90;;;;;;4728877;30;20580;-40
2024/02/11 04:20:23;;;;;;;20.40;18.60;;;6.60;99.90;;;;;;4739536;30;20879;-42
2024/02/11 04:22:51;;;;;;;21.87;19.80;;;6.60;99.90;;;;;;4726251;30;20446;-41
2024/02/11 04:25:20;;;;;;;21.13;19.07;;;6.60;99.90;;;;;;4726117;30;20967;-60
2024/02/11 04:27:46;;;;;;;20.57;18.87;;;6.70;99.90;;;;;;4733296;30;20430;-60
2024/02/11 04:30:15;;;;;;;21.30;19.20;;;6.70;99.90;;;;;;4723910;30;20444;-60
2024/02/11 04:32:41;;;;;;;21.33;18.80;;;6.80;99.90;;;;;;4729837;30;20438;-58
2024/02/11 04:35:11;;;;;;;22.03;20.13;;;6.80;99.90;;;;;;4734297;30;20964;-59
2024/02/11 04:37:38;;;;;;;22.63;20.30;;;6.80;99.90;;;;;;4744983;30;20508;-51
2024/02/11 04:40:10;;;;;;;22.30;20.23;;;6.80;99.90;;;;;;4739299;30;20919;-60
2024/02/11 04:42:41;;;;;;;21.83;19.90;;;6.90;99.90;;;;;;4732785;30;20442;-59
2024/02/11 04:45:07;;;;;;;22.03;20.03;;;6.90;99.90;;;;;;4734663;30;20875;-60
2024/02/11 04:47:35;;;;;;;23.37;20.97;;;6.90;99.90;;;;;;4734423;30;20507;-59
2024/02/11 04:50:04;;;;;;;22.20;20.07;;;7.00;99.90;;;;;;4729508;30;20533;-59
2024/02/11 04:52:29;;;;;;;21.87;19.70;;;7.00;99.90;;;;;;4727365;30;20788;-59
2024/02/11 04:54:56;;;;;;;22.60;20.40;;;7.00;99.90;;;;;;4734332;30;20451;-60
2024/02/11 04:57:22;;;;;;;22.70;20.57;;;7.00;99.90;;;;;;4733675;30;20570;-59
2024/02/11 04:59:48;;;;;;;22.80;20.60;;;7.00;99.90;;;;;;4750633;30;20856;-50
2024/02/11 05:02:13;;;;;;;23.13;20.73;;;7.00;99.90;;;;;;4729821;30;20228;-60
2024/02/11 05:04:42;;;;;;;22.77;20.57;;;7.00;99.90;;;;;;4735911;30;21107;-58
2024/02/11 05:07:08;;;;;;;22.97;20.80;;;7.00;99.90;;;;;;4724116;30;20646;-41
2024/02/11 05:09:37;;;;;;;22.30;20.20;;;7.00;99.90;;;;;;4733707;30;20438;-46
2024/02/11 05:12:07;;;;;;;23.60;21.40;;;7.00;99.90;;;;;;4731778;30;20209;-41
2024/02/11 05:14:34;;;;;;;24.67;22.20;;;7.00;99.90;;;;;;4726019;30;20439;-44
2024/02/11 05:17:02;;;;;;;23.20;20.77;;;7.10;99.90;;;;;;4728342;30;20916;-48
2024/02/11 05:19:32;;;;;;;23.80;21.27;;;7.10;99.90;;;;;;4734623;30;20471;-40
2024/02/11 05:21:58;;;;;;;24.63;22.07;;;7.10;99.90;;;;;;4730354;30;20467;-40
2024/02/11 05:24:23;;;;;;;23.43;21.20;;;7.10;99.90;;;;;;4729213;30;20569;-40
2024/02/11 05:26:49;;;;;;;22.90;20.80;;;7.20;99.90;;;;;;4735295;30;20231;-39
2024/02/11 05:29:15;;;;;;;23.33;21.07;;;7.20;99.90;;;;;;4739078;30;20200;-40
2024/02/11 05:31:41;;;;;;;23.37;20.87;;;7.20;99.90;;;;;;4737080;30;20223;-59
2024/02/11 05:34:07;;;;;;;24.00;21.43;;;7.20;99.90;;;;;;4728649;30;20462;-40
2024/02/11 05:36:35;;;;;;;23.67;21.47;;;7.20;99.90;;;;;;4733110;30;20836;-39
2024/02/11 05:39:00;;;;;;;23.60;21.30;;;7.20;99.90;;;;;;4738537;30;20200;-40
2024/02/11 05:41:26;;;;;;;23.90;21.40;;;7.20;99.90;;;;;;4730635;30;20947;-40
2024/02/11 05:43:52;;;;;;;22.03;20.00;;;7.20;99.90;;;;;;4727315;30;20208;-40
2024/02/11 05:46:18;;;;;;;23.47;21.27;;;7.30;99.90;;;;;;4733414;30;20188;-40
2024/02/11 05:48:43;;;;;;;22.70;20.57;;;7.30;99.90;;;;;;4729133;30;20795;-39
2024/02/11 05:51:12;;;;;;;22.37;20.37;;;7.30;99.90;;;;;;4730597;30;20213;-40
2024/02/11 05:53:39;;;;;;;23.63;21.20;;;7.40;99.90;;;;;;4729969;30;20192;-39
2024/02/11 05:56:06;;;;;;;22.57;20.37;;;7.40;99.90;;;;;;4731871;30;20482;-40
2024/02/11 05:58:32;;;;;;;21.67;19.43;;;7.40;99.90;;;;;;4734054;30;20440;-41
2024/02/11 06:00:58;;;;;;;22.73;20.63;;;7.40;99.90;;;;;;4736348;30;20800;-40
2024/02/11 06:03:23;;;;;;;22.63;20.57;;;7.40;99.90;;;;;;4730407;30;20276;-39
2024/02/11 06:05:49;;;;;;;23.77;21.47;;;7.40;99.90;;;;;;4726105;30;20201;-40
2024/02/11 06:08:15;;;;;;;24.10;21.50;;;7.40;99.90;;;;;;4729516;30;20676;-40
2024/02/11 06:10:43;;;;;;;22.97;20.70;;;7.50;99.90;;;;;;4735140;30;20927;-49
2024/02/11 06:13:12;;;;;;;23.40;21.10;;;7.50;99.90;;;;;;4741777;30;20430;-54
2024/02/11 06:15:40;;;;;;;23.00;20.90;;;7.50;99.90;;;;;;4741699;30;20423;-53
2024/02/11 06:18:06;;;;;;;22.30;20.07;;;7.50;99.90;;;;;;4735171;30;20454;-59
2024/02/11 06:20:32;;;;;;;24.27;21.97;;;7.50;99.90;;;;;;4730741;30;20974;-53
2024/02/11 06:22:58;;;;;;;23.30;21.10;;;7.50;99.90;;;;;;4723626;30;20566;-59
2024/02/11 06:25:23;;;;;;;25.27;22.67;;;7.50;99.90;;;;;;4737577;30;20824;-59
2024/02/11 06:27:50;;;;;;;25.07;22.57;;;7.60;99.90;;;;;;4737035;30;20328;-59
2024/02/11 06:30:17;;;;;;;23.10;21.03;;;7.60;99.90;;;;;;4724889;30;20205;-54
2024/02/11 06:32:49;;;;;;;26.80;22.00;;;7.60;99.90;;;;;;4726505;30;21222;-58
2024/02/11 06:35:15;;;;;;;22.80;20.80;;;7.60;99.90;;;;;;4727899;30;20441;-59
2024/02/11 06:37:43;;;;;;;23.37;21.07;;;7.60;99.90;;;;;;4731115;30;20431;-40
2024/02/11 06:40:14;;;;;;;23.67;21.37;;;7.60;99.90;;;;;;4733269;30;20426;-41
2024/02/11 06:42:42;;;;;;;25.53;23.17;;;7.70;99.90;;;;;;4736625;30;20442;-39
2024/02/11 06:45:12;;;;;;;24.77;22.37;;;7.70;99.90;;;;;;4738475;30;21029;-39
2024/02/11 06:47:40;;;;;;;22.90;20.70;;;7.70;99.90;;;;;;4730463;30;20522;-39
2024/02/11 06:50:18;;;;;;;24.60;22.40;;;7.70;99.90;;;;;;4736937;30;20447;-39
2024/02/11 06:52:47;;;;;;;25.83;23.23;;;7.70;99.90;;;;;;4728277;30;20524;-40
2024/02/11 06:55:15;;;;;;;23.93;21.53;;;7.70;99.90;;;;;;4724082;30;20443;-43
2024/02/11 06:57:40;;;;;;;25.47;23.07;;;7.80;99.90;;;;;;4726104;30;20450;-41
2024/02/11 07:00:10;;;;;;;23.40;21.10;;;7.80;99.90;;;;;;4724513;30;20474;-40
2024/02/11 07:02:37;;;;;;;24.93;22.53;;;7.80;99.90;;;;;;4728045;30;20312;-39
2024/02/11 07:05:09;;;;;;;25.00;22.40;;;7.80;99.90;;;;;;4732839;30;20435;-42
2024/02/11 07:07:35;;;;;;;24.30;21.90;;;7.80;99.90;;;;;;4729634;30;20447;-53
2024/02/11 07:10:01;;;;;;;24.10;21.90;;;7.90;99.90;;;;;;4734040;30;20894;-61
2024/02/11 07:12:26;;;;;;;25.20;22.80;;;7.90;99.90;;;;;;4736453;30;20487;-52
2024/02/11 07:14:52;;;;;;;24.03;21.67;;;7.90;99.90;;;;;;4729068;30;20197;-56
2024/02/11 07:17:19;;;;;;;22.40;20.30;;;7.90;99.90;;;;;;4735032;30;20565;-42
2024/02/11 07:19:45;;;;;;;22.00;19.90;;;8.00;99.90;;;;;;4736676;30;20668;-40
2024/02/11 07:22:11;;;;;;;21.97;20.10;;;8.00;99.90;;;;;;4733894;30;20429;-40
2024/02/11 07:24:41;;;;;;;23.83;21.83;;;8.00;99.90;;;;;;4732349;30;20247;-42
2024/02/11 07:27:09;;;;;;;23.67;21.47;;;8.00;99.90;;;;;;4735911;30;20904;-41
2024/02/11 07:29:35;;;;;;;23.97;21.70;;;8.00;99.90;;;;;;4739755;30;20529;-40
2024/02/11 07:32:02;;;;;;;23.80;21.57;;;8.00;99.90;;;;;;4738948;30;20558;-41
2024/02/11 07:34:29;;;;;;;23.60;21.40;;;8.10;99.90;;;;;;4732966;30;20463;-42
2024/02/11 07:36:55;;;;;;;23.07;21.07;;;8.10;99.90;;;;;;4738603;30;20537;-49
2024/02/11 07:39:21;;;;;;;22.90;20.80;;;8.10;99.90;;;;;;4725365;30;20851;-44
2024/02/11 07:41:46;;;;;;;23.13;21.13;;;8.20;99.90;;;;;;4734253;30;20450;-53
2024/02/11 07:44:12;;;;;;;23.47;21.37;;;8.20;99.90;;;;;;4727788;30;20201;-56
2024/02/11 07:46:39;;;;;;;24.30;22.17;;;8.20;99.90;;;;;;4729160;30;20189;-57
2024/02/11 07:49:05;;;;;;;25.23;22.93;;;8.30;99.90;;;;;;4736991;30;20444;-56
2024/02/11 07:51:30;;;;;;;25.00;22.43;;;8.30;99.90;;;;;;4733221;30;20475;-57
2024/02/11 07:53:56;;;;;;;24.97;22.67;;;8.30;99.90;;;;;;4732020;30;20228;-57
2024/02/11 07:56:22;;;;;;;24.50;22.20;;;8.30;99.90;;;;;;4738069;30;20317;-58
2024/02/11 07:58:48;;;;;;;25.17;22.87;;;8.40;99.90;;;;;;4737616;30;20530;-57
2024/02/11 08:01:14;;;;;;;25.03;22.57;;;8.40;99.90;;;;;;4735466;30;20228;-55
2024/02/11 08:03:39;;;;;;;24.17;21.77;;;8.40;99.90;;;;;;4733234;30;20713;-40
2024/02/11 08:06:09;;;;;;;23.60;21.40;;;8.50;99.90;;;;;;4740101;30;20194;-41
2024/02/11 08:08:38;;;;;;;23.30;21.13;;;8.50;99.90;;;;;;4738186;30;20200;-44
2024/02/11 08:11:05;;;;;;;24.27;21.90;;;8.50;99.90;;;;;;4733157;30;21006;-43
2024/02/11 08:13:32;;;;;;;25.17;22.37;;;8.40;99.90;;;;;;4730677;30;20557;-41
2024/02/11 08:15:59;;;;;;;25.87;23.43;;;8.40;99.90;;;;;;4739226;30;20967;-44
2024/02/11 08:18:25;;;;;;;24.97;22.57;;;8.50;99.90;;;;;;4722798;30;20455;-40
2024/02/11 08:20:50;;;;;;;26.23;23.77;;;8.50;99.90;;;;;;4723942;30;20466;-40
2024/02/11 08:23:16;;;;;;;27.33;24.53;;;8.50;99.90;;;;;;4740255;30;20463;-40
2024/02/11 08:25:43;;;;;;;27.77;24.97;;;8.50;99.90;;;;;;4742945;30;20703;-40
2024/02/11 08:28:09;;;;;;;26.93;24.40;;;8.50;99.90;;;;;;4726683;30;20687;-41
2024/02/11 08:30:36;;;;;;;26.13;23.47;;;8.50;99.90;;;;;;4713351;30;20893;-40
2024/02/11 08:33:02;;;;;;;25.00;22.70;;;8.60;99.90;;;;;;4729775;30;20767;-40
2024/02/11 08:35:27;;;;;;;26.77;24.03;;;8.60;99.90;;;;;;4727978;30;20455;-42
2024/02/11 08:37:53;;;;;;;27.83;24.90;;;8.60;99.90;;;;;;4736872;30;20442;-43
2024/02/11 08:40:19;;;;;;;25.63;23.20;;;8.60;99.90;;;;;;4731805;30;20678;-40
2024/02/11 08:42:45;;;;;;;26.00;23.50;;;8.70;99.90;;;;;;4732625;30;20197;-41
2024/02/11 08:45:11;;;;;;;27.73;24.97;;;8.70;99.90;;;;;;4727516;30;20745;-42
2024/02/11 08:47:37;;;;;;;28.70;26.07;;;8.80;99.90;;;;;;4729634;30;20656;-41
2024/02/11 08:50:04;;;;;;;27.57;24.93;;;8.80;99.90;;;;;;4731336;30;20208;-42
2024/02/11 08:52:31;;;;;;;27.37;24.87;;;8.80;99.90;;;;;;4723722;30;20843;-40
2024/02/11 08:54:56;;;;;;;28.37;25.57;;;8.80;99.90;;;;;;4733351;30;21193;-42
2024/02/11 08:57:22;;;;;;;27.03;24.43;;;8.80;99.90;;;;;;4731873;30;20483;-40
2024/02/11 08:59:48;;;;;;;31.20;28.27;;;8.80;99.90;;;;;;4723003;30;20272;-42
2024/02/11 09:02:17;;;;;;;27.97;25.27;;;8.80;99.90;;;;;;4733312;30;20802;-40
2024/02/11 09:04:43;;;;;;;28.53;25.70;;;8.80;99.90;;;;;;4733580;30;21311;-45
2024/02/11 09:07:10;;;;;;;29.40;26.30;;;8.80;99.90;;;;;;4742571;30;20622;-43
2024/02/11 09:09:36;;;;;;;28.40;25.60;;;8.80;99.90;;;;;;4736892;30;20458;-46
2024/02/11 09:12:02;;;;;;;29.33;26.53;;;8.90;99.90;;;;;;4728566;30;20489;-43
2024/02/11 09:14:30;;;;;;;29.80;26.90;;;8.90;99.90;;;;;;4727977;30;20490;-43
2024/02/11 09:16:57;;;;;;;30.77;27.20;;;8.90;99.90;;;;;;4732908;30;20434;-42
2024/02/11 09:19:27;;;;;;;29.00;26.07;;;8.80;99.90;;;;;;4737965;30;20559;-41
2024/02/11 09:21:53;;;;;;;28.83;26.03;;;8.90;99.90;;;;;;4730352;30;20514;-41
2024/02/11 09:24:19;;;;;;;28.43;25.60;;;8.90;99.90;;;;;;4722139;30;20553;-42
2024/02/11 09:26:45;;;;;;;29.50;26.33;;;8.90;99.90;;;;;;4721930;30;20972;-41
2024/02/11 09:29:11;;;;;;;36.50;32.63;;;9.00;99.90;;;;;;4721197;30;20587;-41
2024/02/11 09:31:39;;;;;;;30.83;27.60;;;9.00;99.90;;;;;;4725386;30;20489;-42
2024/02/11 09:34:05;;;;;;;32.57;29.37;;;9.00;99.90;;;;;;4732627;30;20272;-40
2024/02/11 09:36:33;;;;;;;31.70;28.70;;;9.00;99.90;;;;;;4730104;30;21250;-43
2024/02/11 09:38:59;;;;;;;29.97;27.07;;;9.00;99.90;;;;;;4737415;30;20442;-40
2024/02/11 09:41:29;;;;;;;33.43;28.10;;;9.00;99.90;;;;;;4733975;30;20437;-39
2024/02/11 09:43:58;;;;;;;30.00;26.90;;;9.00;99.90;;;;;;4734415;30;20653;-45
2024/02/11 09:46:28;;;;;;;28.87;25.93;;;9.00;99.90;;;;;;4723031;30;20749;-40
2024/02/11 09:48:57;;;;;;;30.50;27.17;;;9.00;99.90;;;;;;4727644;30;20450;-45
2024/02/11 09:51:26;;;;;;;30.00;27.17;;;9.00;99.90;;;;;;4725121;30;20559;-43
2024/02/11 09:53:55;;;;;;;32.27;29.10;;;9.00;99.90;;;;;;4735897;30;20570;-54
2024/02/11 09:56:21;;;;;;;32.03;28.93;;;9.00;99.90;;;;;;4726635;30;20486;-58
2024/02/11 09:58:47;;;;;;;33.43;29.97;;;8.90;99.90;;;;;;4730198;30;20962;-58
2024/02/11 10:01:13;;;;;;;35.77;32.23;;;9.00;99.90;;;;;;4729255;30;20562;-56
2024/02/11 10:03:41;;;;;;;35.37;31.57;;;9.00;99.90;;;;;;4735061;30;20258;-55
2024/02/11 10:06:11;;;;;;;32.50;29.17;;;9.00;99.90;;;;;;4731757;30;20467;-53
2024/02/11 10:08:36;;;;;;;34.10;30.50;;;9.00;99.90;;;;;;4731411;30;20560;-55
2024/02/11 10:11:07;;;;;;;32.60;29.00;;;9.10;99.90;;;;;;4727345;30;21806;-54
2024/02/11 10:13:38;;;;;;;32.77;29.27;;;9.10;99.90;;;;;;4729933;30;20561;-53
2024/02/11 10:16:07;;;;;;;32.47;29.10;;;9.10;99.90;;;;;;4735809;30;20806;-55
2024/02/11 10:18:33;;;;;;;31.70;28.37;;;9.10;99.90;;;;;;4732847;30;20533;-54
2024/02/11 10:21:00;;;;;;;33.73;30.27;;;9.20;99.90;;;;;;4734135;30;20458;-57
2024/02/11 10:23:26;;;;;;;33.20;29.80;;;9.10;99.90;;;;;;4728336;30;20470;-57
2024/02/11 10:25:53;;;;;;;36.43;32.83;;;9.20;99.90;;;;;;4737170;30;20605;-55
2024/02/11 10:28:19;;;;;;;34.13;30.40;;;9.20;99.90;;;;;;4731678;30;20446;-56
2024/02/11 10:30:44;;;;;;;32.90;29.50;;;9.20;99.90;;;;;;4724633;30;20520;-51
2024/02/11 10:33:11;;;;;;;32.77;29.33;;;9.20;99.90;;;;;;4733070;30;20181;-40
2024/02/11 10:35:37;;;;;;;31.93;28.70;;;9.30;99.90;;;;;;4726728;30;20313;-44
2024/02/11 10:38:06;;;;;;;33.00;29.60;;;9.30;99.90;;;;;;4726453;30;21687;-42
2024/02/11 10:40:35;;;;;;;33.30;29.87;;;9.30;99.90;;;;;;4727970;30;21325;-40
2024/02/11 10:43:03;;;;;;;33.87;30.20;;;9.30;99.90;;;;;;4733322;30;20466;-41
2024/02/11 10:45:28;;;;;;;33.60;29.30;;;9.30;99.90;;;;;;4736330;30;21119;-41
2024/02/11 10:47:54;;;;;;;33.10;29.80;;;9.30;99.90;;;;;;4739791;30;20541;-40
2024/02/11 10:50:20;;;;;;;35.53;31.73;;;9.40;99.90;;;;;;4730901;30;20205;-44
2024/02/11 10:52:48;;;;;;;35.80;31.97;;;9.30;99.90;;;;;;4729195;30;20193;-40
2024/02/11 10:55:19;;;;;;;35.23;31.53;;;9.30;99.90;;;;;;4738809;30;20197;-40
2024/02/11 10:57:48;;;;;;;35.53;31.73;;;9.30;99.90;;;;;;4739948;30;20416;-42
2024/02/11 11:00:22;;;;;;;33.30;29.90;;;9.40;99.90;;;;;;4729440;30;20452;-41
2024/02/11 11:02:54;;;;;;;34.30;30.50;;;9.40;99.90;;;;;;4730735;30;20430;-40
2024/02/11 11:05:21;;;;;;;33.57;30.27;;;9.40;99.90;;;;;;4737670;30;20439;-47
2024/02/11 11:07:49;;;;;;;35.37;31.57;;;9.50;99.90;;;;;;4731454;30;20475;-53
2024/02/11 11:10:15;;;;;;;34.03;30.40;;;9.40;99.90;;;;;;4731020;30;20457;-57
2024/02/11 11:12:47;;;;;;;33.13;29.63;;;9.50;99.90;;;;;;4725750;30;20471;-40
2024/02/11 11:15:12;;;;;;;34.17;30.33;;;9.50;99.90;;;;;;4734136;30;20745;-39
2024/02/11 11:17:38;;;;;;;35.57;31.23;;;9.50;99.90;;;;;;4738814;30;20426;-40
2024/02/11 11:20:12;;;;;;;35.77;32.33;;;9.50;99.90;;;;;;4730536;30;20196;-41
2024/02/11 11:22:39;;;;;;;38.10;34.00;;;9.50;99.90;;;;;;4734439;30;20980;-43
2024/02/11 11:25:14;;;;;;;36.57;32.70;;;9.60;99.90;;;;;;4725254;30;20432;-39
2024/02/11 11:27:39;;;;;;;34.33;30.30;;;9.60;99.90;;;;;;4728172;30;20453;-41
2024/02/11 11:30:10;;;;;;;34.60;31.07;;;9.70;99.90;;;;;;4720340;30;20427;-41
2024/02/11 11:32:45;;;;;;;35.70;32.00;;;9.70;99.90;;;;;;4732044;30;20213;-44
2024/02/11 11:35:16;;;;;;;33.10;29.87;;;9.70;99.90;;;;;;4731900;30;20794;-40
2024/02/11 11:37:41;;;;;;;33.33;29.93;;;9.70;99.90;;;;;;4734198;30;20702;-54
2024/02/11 11:40:08;;;;;;;32.17;28.87;;;9.70;99.90;;;;;;4730525;30;20979;-54
2024/02/11 11:42:34;;;;;;;34.30;30.70;;;9.70;99.90;;;;;;4725284;30;20925;-57
2024/02/11 11:45:07;;;;;;;34.33;31.03;;;9.70;99.90;;;;;;4723648;30;20458;-53
2024/02/11 11:47:37;;;;;;;32.87;29.47;;;9.70;99.90;;;;;;4730524;30;20451;-54
2024/02/11 11:50:06;;;;;;;33.30;29.80;;;9.80;99.90;;;;;;4729068;30;20427;-57
2024/02/11 11:52:35;;;;;;;36.60;30.53;;;9.80;99.90;;;;;;4731527;30;20483;-57
2024/02/11 11:55:04;;;;;;;32.70;29.70;;;9.80;99.90;;;;;;4727845;30;21184;-56
2024/02/11 11:57:30;;;;;;;32.93;29.53;;;9.80;99.90;;;;;;4739933;30;20535;-54
2024/02/11 11:59:59;;;;;;;32.87;29.40;;;9.80;99.90;;;;;;4727480;30;20926;-56
2024/02/11 12:02:26;;;;;;;34.60;31.10;;;9.80;99.90;;;;;;4732042;30;20926;-56
2024/02/11 12:04:52;;;;;;;31.23;28.10;;;9.80;99.90;;;;;;4740310;30;20449;-49
2024/02/11 12:07:19;;;;;;;31.47;28.17;;;9.90;99.90;;;;;;4732503;30;20478;-56
2024/02/11 12:09:45;;;;;;;35.63;31.73;;;9.90;99.90;;;;;;4729636;30;20463;-53
2024/02/11 12:12:10;;;;;;;32.67;29.33;;;10.00;99.90;;;;;;4729902;30;20477;-57
2024/02/11 12:14:36;;;;;;;33.23;30.03;;;10.00;99.90;;;;;;4731962;30;20192;-56
2024/02/11 12:17:03;;;;;;;34.43;30.73;;;10.00;99.90;;;;;;4733622;30;20436;-56
2024/02/11 12:19:38;;;;;;;33.13;29.63;;;10.00;99.90;;;;;;4735197;30;20458;-55
2024/02/11 12:22:07;;;;;;;33.80;30.53;;;10.10;99.90;;;;;;4738255;30;20454;-56
2024/02/11 12:24:41;;;;;;;36.13;32.50;;;10.10;99.90;;;;;;4723916;30;20462;-57
2024/02/11 12:27:14;;;;;;;34.57;30.77;;;10.10;99.90;;;;;;4727590;30;21018;-55
2024/02/11 12:29:41;;;;;;;35.03;31.17;;;10.10;99.90;;;;;;4723627;30;20435;-56
2024/02/11 12:32:08;;;;;;;32.83;29.43;;;10.10;99.90;;;;;;4725010;30;20569;-50
2024/02/11 12:34:34;;;;;;;35.83;32.07;;;10.10;99.90;;;;;;4731831;30;20455;-54
2024/02/11 12:37:03;;;;;;;37.70;33.47;;;10.10;99.90;;;;;;4736408;30;20434;-55